Time;durP1;ratioP1;P1;durP2;ratioP2;P2;SDS_P1;SDS_P2;PMS_P1;PMS_P2;Temp;Humidity;BMP_temperature;BMP_pressure;BME280_temperature;BME280_humidity;BME280_pressure;Samples;Min_cycle;Max_cycle;Signal;HPM_P1;HPM_P2
2022/08/30 00:01:31;;;;;;;9.38;4.60;;;;;;;18.83;66.27;101210.25;4976325;28;20167;-80
2022/08/30 00:04:00;;;;;;;11.50;4.93;;;;;;;18.84;66.34;101211.88;4964045;28;20083;-80
2022/08/30 00:06:28;;;;;;;7.93;4.50;;;;;;;18.78;66.53;101199.41;4961958;28;20050;-78
2022/08/30 00:08:56;;;;;;;8.68;4.78;;;;;;;18.77;66.60;101213.69;4959077;28;20516;-77
2022/08/30 00:11:25;;;;;;;7.45;5.03;;;;;;;18.70;66.95;101215.47;4955456;28;20051;-78
2022/08/30 00:13:55;;;;;;;7.55;4.53;;;;;;;18.69;66.95;101213.00;4955386;28;20047;-77
2022/08/30 00:16:22;;;;;;;8.75;4.80;;;;;;;18.72;66.94;101202.84;4965966;28;20488;-79
2022/08/30 00:18:50;;;;;;;8.13;4.72;;;;;;;18.77;66.86;101215.50;4976275;28;20478;-78
2022/08/30 00:21:17;;;;;;;10.68;5.10;;;;;;;18.81;67.00;101209.63;4976463;28;20550;-78
2022/08/30 00:23:43;;;;;;;6.15;4.47;;;;;;;18.86;66.43;101199.25;4978532;28;20130;-78
2022/08/30 00:26:10;;;;;;;6.78;4.63;;;;;;;18.84;66.57;101201.28;4973032;28;20054;-80
2022/08/30 00:28:37;;;;;;;7.10;4.93;;;;;;;18.86;66.60;101199.25;4960263;28;20538;-79
2022/08/30 00:31:06;;;;;;;8.25;4.97;;;;;;;18.75;66.83;101205.09;4968487;28;20082;-80
2022/08/30 00:33:33;;;;;;;11.85;5.00;;;;;;;18.64;67.29;101208.28;4981311;28;20074;-81
2022/08/30 00:35:59;;;;;;;10.05;4.30;;;;;;;18.55;67.65;101215.53;4980538;28;20078;-80
2022/08/30 00:38:26;;;;;;;8.75;4.28;;;;;;;18.45;67.83;101222.19;4979999;28;20572;-81
2022/08/30 00:40:53;;;;;;;7.60;4.82;;;;;;;18.38;68.25;101216.03;4979651;28;20082;-80
2022/08/30 00:43:23;;;;;;;7.55;4.57;;;;;;;18.32;68.68;101222.09;4977989;28;20110;-80
2022/08/30 00:45:50;;;;;;;7.45;4.50;;;;;;;18.26;68.91;101217.56;4977453;28;20487;-80
2022/08/30 00:48:19;;;;;;;9.80;4.93;;;;;;;18.19;69.09;101217.53;4977387;28;20078;-80
2022/08/30 00:50:49;;;;;;;7.93;5.03;;;;;;;18.11;69.53;101215.81;4973674;28;20082;-80
2022/08/30 00:53:20;;;;;;;6.75;4.20;;;;;;;18.05;69.88;101227.19;4959029;28;20091;-80
2022/08/30 00:55:49;;;;;;;8.50;4.70;;;;;;;18.01;70.02;101220.63;4959004;28;20055;-80
2022/08/30 00:58:26;;;;;;;8.02;4.65;;;;;;;17.99;70.08;101221.81;4958420;28;20083;-81
2022/08/30 01:00:56;;;;;;;9.50;4.93;;;;;;;17.98;69.89;101234.25;4958890;28;20055;-80
2022/08/30 01:03:25;;;;;;;13.18;5.38;;;;;;;18.02;69.80;101222.25;4959527;28;20043;-80
2022/08/30 01:05:52;;;;;;;8.77;4.43;;;;;;;18.01;70.11;101225.09;4960197;28;20079;-79
2022/08/30 01:08:21;;;;;;;8.45;4.47;;;;;;;18.01;70.29;101227.75;4958945;28;20709;-79
2022/08/30 01:10:50;;;;;;;7.75;4.53;;;;;;;18.01;70.00;101227.75;4959218;28;20047;-78
2022/08/30 01:13:17;;;;;;;7.63;4.80;;;;;;;18.04;70.12;101230.84;4968209;28;20480;-80
2022/08/30 01:15:45;;;;;;;7.18;4.93;;;;;;;17.98;70.15;101236.06;4973013;28;20420;-79
2022/08/30 01:18:13;;;;;;;8.20;4.95;;;;;;;17.99;70.43;101229.75;4958206;28;20069;-80
2022/08/30 01:20:49;;;;;;;5.97;4.57;;;;;;;17.94;70.73;101234.84;4960080;28;20162;-78
2022/08/30 01:23:19;;;;;;;6.88;4.65;;;;;;;17.90;70.90;101223.81;4973114;28;20074;-80
2022/08/30 01:25:48;;;;;;;9.02;5.10;;;;;;;17.94;70.50;101227.72;4980225;28;20074;-80
2022/08/30 01:28:19;;;;;;;7.97;4.82;;;;;;;17.96;70.48;101225.66;4981516;28;20050;-80
2022/08/30 01:30:47;;;;;;;8.05;5.22;;;;;;;17.90;70.67;101226.44;4981374;28;20085;-79
2022/08/30 01:33:14;;;;;;;6.53;4.65;;;;;;;17.85;71.05;101231.50;4980978;28;20082;-78
2022/08/30 01:35:47;;;;;;;10.05;4.78;;;;;;;17.82;71.28;101234.50;4978750;28;20090;-81
2022/08/30 01:38:15;;;;;;;7.88;5.30;;;;;;;17.79;71.46;101234.88;4978876;28;20101;-80
2022/08/30 01:40:43;;;;;;;9.52;4.63;;;;;;;17.85;71.26;101234.94;4974537;28;20070;-78
2022/08/30 01:43:12;;;;;;;6.65;4.50;;;;;;;17.88;71.28;101239.06;4961936;28;20538;-79
2022/08/30 01:45:38;;;;;;;8.38;4.47;;;;;;;17.99;70.80;101238.53;4961154;28;20472;-78
2022/08/30 01:48:05;;;;;;;8.45;4.53;;;;;;;18.00;70.94;101237.50;4959706;28;20130;-79
2022/08/30 01:50:32;;;;;;;8.43;4.68;;;;;;;17.99;71.21;101243.00;4964234;28;20051;-81
2022/08/30 01:52:58;;;;;;;8.70;4.78;;;;;;;17.99;71.15;101237.69;4979591;28;20050;-79
2022/08/30 01:55:25;;;;;;;9.18;5.15;;;;;;;17.96;71.09;101238.91;4983515;28;20062;-80
2022/08/30 01:57:53;;;;;;;9.95;4.93;;;;;;;17.97;70.98;101247.66;4994560;28;20054;-81
2022/08/30 02:00:20;;;;;;;7.65;4.85;;;;;;;17.90;71.52;101243.16;4990966;28;20059;-81
2022/08/30 02:02:46;;;;;;;7.80;4.55;;;;;;;17.89;71.33;101238.88;4994850;28;20043;-81
2022/08/30 02:05:13;;;;;;;7.28;5.00;;;;;;;17.85;71.57;101234.94;4994907;28;20054;-80
2022/08/30 02:07:39;;;;;;;7.13;4.57;;;;;;;17.80;71.84;101233.88;4997151;28;20119;-80
2022/08/30 02:10:07;;;;;;;7.53;5.00;;;;;;;17.81;72.17;101241.63;4991918;28;20047;-80
2022/08/30 02:12:33;;;;;;;9.45;5.25;;;;;;;17.74;72.21;101239.91;4972274;28;20083;-79
2022/08/30 02:15:01;;;;;;;9.55;4.70;;;;;;;17.71;72.20;101245.59;4972785;28;20058;-78
2022/08/30 02:17:28;;;;;;;9.02;4.60;;;;;;;17.70;72.60;101241.31;4995295;23;20502;-79
2022/08/30 02:19:55;;;;;;;7.28;5.38;;;;;;;17.58;72.58;101225.06;4994566;28;20058;-80
2022/08/30 02:22:22;;;;;;;12.10;5.45;;;;;;;17.68;72.70;101243.31;4995960;28;20058;-77
2022/08/30 02:24:48;;;;;;;9.32;4.60;;;;;;;17.64;72.92;101239.38;4995589;28;20137;-79
2022/08/30 02:27:15;;;;;;;8.50;4.65;;;;;;;17.65;72.87;101241.00;4995218;28;20082;-79
2022/08/30 02:29:42;;;;;;;7.50;4.60;;;;;;;17.65;73.02;101239.22;4978851;28;20509;-79
2022/08/30 02:32:10;;;;;;;5.93;4.50;;;;;;;17.68;73.20;101236.19;4976467;28;20078;-79
2022/08/30 02:34:36;;;;;;;7.40;4.35;;;;;;;17.75;72.68;101233.63;4975423;28;20133;-79
2022/08/30 02:37:03;;;;;;;8.40;4.97;;;;;;;17.73;72.29;101230.34;4977766;28;20090;-80
2022/08/30 02:39:30;;;;;;;10.13;4.47;;;;;;;17.68;72.81;101222.16;4979967;28;20061;-79
2022/08/30 02:41:57;;;;;;;7.45;4.60;;;;;;;17.75;72.53;101223.84;4980650;28;20117;-79
2022/08/30 02:44:24;;;;;;;8.85;4.88;;;;;;;17.77;72.38;101229.78;4980348;28;20490;-78
2022/08/30 02:46:50;;;;;;;8.73;4.78;;;;;;;17.80;72.53;101225.94;4981293;28;20061;-80
2022/08/30 02:49:18;;;;;;;9.68;5.93;;;;;;;17.71;72.82;101225.22;4976549;28;20232;-78
2022/08/30 02:51:45;;;;;;;9.80;4.95;;;;;;;17.74;72.72;101213.44;4975276;28;20578;-79
2022/08/30 02:54:14;;;;;;;8.05;4.78;;;;;;;17.66;73.11;101213.56;4975320;28;20133;-78
2022/08/30 02:56:42;;;;;;;11.57;4.90;;;;;;;17.52;73.38;101215.22;4987257;28;20054;-78
2022/08/30 02:59:08;;;;;;;9.57;5.00;;;;;;;17.43;73.85;101214.53;4993872;28;20051;-78
2022/08/30 03:01:37;;;;;;;10.15;4.63;;;;;;;17.39;74.41;101212.44;4982660;28;20422;-78
2022/08/30 03:04:05;;;;;;;7.32;4.47;;;;;;;17.36;74.32;101207.53;4974679;28;20142;-79
2022/08/30 03:06:33;;;;;;;8.80;4.75;;;;;;;17.34;74.47;101207.72;4984354;28;20541;-78
2022/08/30 03:08:59;;;;;;;7.50;4.70;;;;;;;17.35;74.42;101209.34;4994560;28;20077;-77
2022/08/30 03:11:26;;;;;;;8.60;4.90;;;;;;;17.34;74.63;101212.19;4990719;28;20478;-78
2022/08/30 03:13:53;;;;;;;9.27;5.30;;;;;;;17.31;74.99;101209.91;4995035;28;20451;-77
2022/08/30 03:16:20;;;;;;;8.25;5.20;;;;;;;17.32;75.17;101215.00;4992335;28;20485;-78
2022/08/30 03:18:47;;;;;;;9.27;4.90;;;;;;;17.36;75.04;101213.63;4993575;28;20109;-78
2022/08/30 03:21:15;;;;;;;8.35;5.20;;;;;;;17.37;75.10;101211.81;4982707;28;20101;-78
2022/08/30 03:23:44;;;;;;;6.90;4.85;;;;;;;17.37;75.35;101217.09;4974942;28;20161;-78
2022/08/30 03:26:13;;;;;;;9.32;5.45;;;;;;;17.34;75.17;101217.47;4974992;28;20472;-78
2022/08/30 03:28:41;;;;;;;10.05;5.47;;;;;;;17.31;75.33;101218.66;4974324;28;20507;-77
2022/08/30 03:31:08;;;;;;;10.30;5.13;;;;;;;17.25;75.26;101214.94;4982498;28;20086;-77
2022/08/30 03:33:36;;;;;;;8.27;5.00;;;;;;;17.24;75.44;101220.41;4994113;28;20490;-79
2022/08/30 03:36:03;;;;;;;7.63;5.18;;;;;;;17.21;75.83;101216.31;4993161;28;20134;-78
2022/08/30 03:38:29;;;;;;;9.40;5.65;;;;;;;17.25;76.21;101203.53;4991965;28;20046;-79
2022/08/30 03:40:57;;;;;;;7.70;5.43;;;;;;;17.22;76.06;101212.66;4980651;28;20078;-78
2022/08/30 03:43:24;;;;;;;12.88;5.60;;;;;;;17.21;76.05;101212.84;4994095;28;20050;-78
2022/08/30 03:45:51;;;;;;;8.07;5.10;;;;;;;17.19;76.71;101214.84;4986262;28;20568;-78
2022/08/30 03:48:18;;;;;;;8.50;5.55;;;;;;;17.16;76.85;101218.69;4973398;28;20499;-79
2022/08/30 03:50:44;;;;;;;9.65;5.25;;;;;;;17.11;77.22;101218.41;4973802;28;20051;-79
2022/08/30 03:53:11;;;;;;;8.38;5.07;;;;;;;17.15;77.15;101216.22;4973666;28;20133;-78
2022/08/30 03:55:38;;;;;;;8.88;5.03;;;;;;;17.13;77.09;101216.41;4974829;28;20153;-78
2022/08/30 03:58:06;;;;;;;9.88;5.28;;;;;;;17.11;77.12;101207.00;4975832;28;20106;-78
2022/08/30 04:00:33;;;;;;;7.68;5.00;;;;;;;17.06;77.50;101206.75;4978581;28;20058;-80
2022/08/30 04:02:59;;;;;;;7.55;4.80;;;;;;;17.01;77.96;101203.84;4995251;28;20519;-79
2022/08/30 04:05:27;;;;;;;8.35;5.00;;;;;;;16.98;78.27;101218.25;4989362;28;20145;-79
2022/08/30 04:07:54;;;;;;;10.38;5.28;;;;;;;16.89;78.48;101204.31;4975782;28;20050;-80
2022/08/30 04:10:21;;;;;;;10.02;5.00;;;;;;;16.80;78.32;101213.34;4976741;28;20051;-80
2022/08/30 04:12:48;;;;;;;8.00;4.95;;;;;;;16.74;78.34;101206.13;4977665;28;20086;-80
2022/08/30 04:15:17;;;;;;;6.95;5.38;;;;;;;16.66;78.28;101206.22;4979444;28;20104;-80
2022/08/30 04:17:44;;;;;;;7.68;5.45;;;;;;;16.61;78.33;101213.84;4997139;28;20114;-80
2022/08/30 04:20:11;;;;;;;9.43;5.10;;;;;;;16.59;78.69;101218.47;4997213;28;20050;-79
2022/08/30 04:22:38;;;;;;;10.50;5.13;;;;;;;16.54;78.51;101221.66;4997925;28;20129;-80
2022/08/30 04:25:06;;;;;;;7.13;4.75;;;;;;;16.53;78.65;101221.88;4996790;28;20046;-79
2022/08/30 04:27:33;;;;;;;8.30;5.30;;;;;;;16.57;78.57;101217.84;4979394;28;20054;-79
2022/08/30 04:30:01;;;;;;;8.48;5.22;;;;;;;16.63;78.58;101225.03;4977601;28;20054;-80
2022/08/30 04:32:29;;;;;;;9.43;5.28;;;;;;;16.78;78.05;101217.97;4998201;28;20062;-80
2022/08/30 04:34:57;;;;;;;7.80;5.22;;;;;;;16.82;77.89;101218.44;4996658;28;20096;-79
2022/08/30 04:37:24;;;;;;;9.80;5.65;;;;;;;16.78;77.94;101223.28;4987639;28;20054;-78
2022/08/30 04:39:50;;;;;;;11.25;5.80;;;;;;;16.80;78.04;101221.28;4975891;28;20051;-79
2022/08/30 04:42:17;;;;;;;8.95;5.53;;;;;;;16.78;78.09;101225.09;4992846;28;20177;-80
2022/08/30 04:44:44;;;;;;;10.50;5.78;;;;;;;16.81;78.38;101227.38;4994606;28;20092;-79
2022/08/30 04:47:11;;;;;;;9.02;5.90;;;;;;;16.74;78.56;101227.28;4994389;28;20137;-79
2022/08/30 04:49:39;;;;;;;8.13;5.38;;;;;;;16.81;78.49;101228.19;4997344;28;20050;-80
2022/08/30 04:52:07;;;;;;;10.63;5.22;;;;;;;16.76;78.76;101232.38;4982752;28;20090;-79
2022/08/30 04:54:34;;;;;;;11.07;5.43;;;;;;;16.70;79.04;101241.84;4972637;28;20082;-79
2022/08/30 04:57:00;;;;;;;11.77;5.68;;;;;;;16.68;78.98;101243.84;4994059;28;20110;-79
2022/08/30 04:59:27;;;;;;;9.55;5.68;;;;;;;16.68;79.38;101238.56;4994784;28;20100;-78
2022/08/30 05:01:54;;;;;;;10.93;5.70;;;;;;;16.64;79.82;101237.28;4988393;28;20133;-79
2022/08/30 05:04:21;;;;;;;9.23;5.43;;;;;;;16.62;80.17;101236.63;4991688;28;20042;-78
2022/08/30 05:06:49;;;;;;;12.30;6.10;;;;;;;16.71;79.98;101246.13;4991791;28;20144;-79
2022/08/30 05:09:15;;;;;;;8.45;5.57;;;;;;;16.77;80.05;101253.34;4992385;28;20047;-80
2022/08/30 05:11:42;;;;;;;13.48;5.75;;;;;;;16.86;79.83;101252.25;4977234;28;20047;-79
2022/08/30 05:14:10;;;;;;;9.13;5.40;;;;;;;16.95;79.46;101245.06;4973322;28;20142;-80
2022/08/30 05:16:37;;;;;;;10.07;5.35;;;;;;;17.04;79.51;101248.41;4984788;28;20061;-79
2022/08/30 05:19:03;;;;;;;8.27;5.75;;;;;;;17.12;79.12;101253.59;4992149;28;20145;-79
2022/08/30 05:21:30;;;;;;;9.27;5.50;;;;;;;17.16;78.69;101249.59;4978259;28;20085;-79
2022/08/30 05:24:00;;;;;;;11.50;6.20;;;;;;;17.15;79.01;101243.47;4976315;28;20157;-79
2022/08/30 05:26:31;;;;;;;9.23;6.35;;;;;;;17.07;79.15;101242.75;4973381;28;20141;-79
2022/08/30 05:28:58;;;;;;;16.80;6.53;;;;;;;17.03;79.60;101246.78;4973496;28;20140;-78
2022/08/30 05:31:27;;;;;;;11.52;6.10;;;;;;;17.05;79.67;101245.59;4974589;28;20106;-77
2022/08/30 05:33:55;;;;;;;10.25;6.05;;;;;;;17.14;79.54;101257.72;4971853;28;20137;-78
2022/08/30 05:36:24;;;;;;;11.50;6.53;;;;;;;17.21;79.72;101260.44;4971399;28;20050;-78
2022/08/30 05:38:51;;;;;;;14.30;6.80;;;;;;;17.24;79.02;101250.31;4972101;28;20463;-77
2022/08/30 05:41:20;;;;;;;11.02;6.07;;;;;;;17.29;79.13;101252.41;4973414;28;20427;-78
2022/08/30 05:43:48;;;;;;;14.30;6.65;;;;;;;17.30;79.17;101247.94;4976036;28;20684;-78
2022/08/30 05:46:18;;;;;;;12.75;6.30;;;;;;;17.32;78.76;101252.03;4985031;28;20134;-78
2022/08/30 05:48:45;;;;;;;13.93;6.65;;;;;;;17.39;78.35;101252.94;4995787;28;20057;-78
2022/08/30 05:51:14;;;;;;;12.68;7.00;;;;;;;17.63;77.87;101248.31;4983699;28;20051;-79
2022/08/30 05:53:41;;;;;;;11.48;5.85;;;;;;;17.77;77.05;101244.84;4975782;28;20479;-78
2022/08/30 05:56:13;;;;;;;9.13;5.93;;;;;;;18.05;76.08;101248.34;4977490;28;20069;-77
2022/08/30 05:58:41;;;;;;;11.80;5.65;;;;;;;18.35;74.98;101253.53;4975463;28;20118;-78
2022/08/30 06:01:18;;;;;;;9.73;5.65;;;;;;;18.53;74.12;101249.38;4977069;28;20135;-77
2022/08/30 06:03:44;;;;;;;11.13;5.93;;;;;;;19.02;72.68;101251.13;4983136;28;20126;-77
2022/08/30 06:06:11;;;;;;;13.20;6.10;;;;;;;19.52;71.39;101249.09;4988774;28;20047;-76
2022/08/30 06:08:38;;;;;;;10.50;5.93;;;;;;;19.86;69.67;101245.50;4991584;28;20042;-78
2022/08/30 06:11:05;;;;;;;9.93;5.97;;;;;;;19.73;69.21;101246.31;4993734;28;20086;-78
2022/08/30 06:13:31;;;;;;;12.85;5.55;;;;;;;19.67;70.11;101244.47;4994391;28;20148;-77
2022/08/30 06:15:59;;;;;;;8.88;5.75;;;;;;;19.73;69.44;101243.66;4990712;28;20675;-77
2022/08/30 06:18:26;;;;;;;7.20;5.07;;;;;;;20.14;68.15;101240.84;4984939;28;20066;-77
2022/08/30 06:20:53;;;;;;;10.73;5.75;;;;;;;20.34;67.42;101234.69;4982421;28;20062;-77
2022/08/30 06:23:20;;;;;;;11.05;5.35;;;;;;;19.92;68.63;101239.38;4984570;28;20125;-77
2022/08/30 06:25:46;;;;;;;12.15;5.55;;;;;;;19.64;69.65;101234.25;4976679;28;20082;-77
2022/08/30 06:28:13;;;;;;;7.40;5.22;;;;;;;19.91;69.72;101239.59;4983790;28;20109;-79
2022/08/30 06:30:41;;;;;;;8.35;5.10;;;;;;;21.02;66.63;101229.88;4982088;28;20047;-76
2022/08/30 06:33:10;;;;;;;9.95;5.13;;;;;;;21.66;63.95;101229.81;4980172;28;20140;-76
2022/08/30 06:35:37;;;;;;;10.43;4.90;;;;;;;21.10;65.00;101224.34;4979189;28;20163;-76
2022/08/30 06:38:04;;;;;;;10.98;6.05;;;;;;;21.08;64.65;101216.56;4983680;28;20130;-78
2022/08/30 06:40:31;;;;;;;8.13;5.25;;;;;;;21.57;62.90;101220.44;4979511;28;20059;-77
2022/08/30 06:42:57;;;;;;;11.80;5.30;;;;;;;21.58;62.92;101229.25;4976800;28;20089;-76
2022/08/30 06:45:25;;;;;;;8.27;4.97;;;;;;;21.89;61.79;101234.56;4980773;28;20555;-77
2022/08/30 06:47:52;;;;;;;12.07;5.05;;;;;;;21.29;63.45;101236.75;4976114;28;20137;-77
2022/08/30 06:50:20;;;;;;;11.45;5.28;;;;;;;20.48;65.89;101242.50;4989645;28;20082;-76
2022/08/30 06:52:46;;;;;;;11.32;5.40;;;;;;;20.33;66.32;101244.50;4977324;28;20607;-77
2022/08/30 06:55:15;;;;;;;10.05;5.45;;;;;;;20.16;67.43;101243.31;4992420;28;20125;-77
2022/08/30 06:57:42;;;;;;;10.75;5.60;;;;;;;20.75;65.76;101237.97;4983394;28;20078;-77
2022/08/30 07:00:12;;;;;;;9.50;5.20;;;;;;;22.29;61.44;101237.78;4981444;28;20130;-77
2022/08/30 07:02:40;;;;;;;12.15;5.20;;;;;;;23.11;59.18;101243.75;4981855;28;20074;-78
2022/08/30 07:05:10;;;;;;;9.32;5.70;;;;;;;23.32;57.86;101237.91;4975785;28;20054;-76
2022/08/30 07:07:38;;;;;;;12.20;5.20;;;;;;;23.74;56.66;101235.31;4980984;28;20098;-78
2022/08/30 07:10:07;;;;;;;9.55;5.35;;;;;;;23.43;57.44;101226.47;4983914;28;20078;-78
2022/08/30 07:12:34;;;;;;;15.35;5.50;;;;;;;22.90;58.29;101236.19;4979935;28;20130;-79
2022/08/30 07:15:03;;;;;;;12.77;5.00;;;;;;;22.34;59.75;101231.78;4982567;28;20094;-78
2022/08/30 07:20:15;;;;;;;12.13;5.25;;;;;;;21.92;60.74;101226.16;4976030;28;20109;-78
2022/08/30 07:22:43;;;;;;;8.05;5.25;;;;;;;22.09;60.77;101240.63;4977636;28;20097;-79
2022/08/30 07:25:09;;;;;;;15.65;5.30;;;;;;;21.95;60.95;101239.03;4977475;28;20089;-79
2022/08/30 07:27:36;;;;;;;11.00;5.15;;;;;;;22.45;60.32;101228.41;4976313;28;20109;-78
2022/08/30 07:30:04;;;;;;;11.63;5.45;;;;;;;23.65;57.32;101226.78;4982175;28;20066;-78
2022/08/30 07:32:30;;;;;;;7.95;4.97;;;;;;;24.54;54.92;101229.50;4980967;28;20129;-79
2022/08/30 07:34:58;;;;;;;9.80;4.97;;;;;;;25.59;52.83;101251.47;4978879;28;20419;-80
2022/08/30 07:37:25;;;;;;;13.00;5.05;;;;;;;25.95;50.93;101241.41;4974468;28;20490;-78
2022/08/30 07:39:53;;;;;;;11.00;5.55;;;;;;;25.13;52.60;101253.28;4973598;28;20047;-78
2022/08/30 07:42:19;;;;;;;11.95;4.82;;;;;;;25.51;52.25;101243.03;4973635;28;20570;-79
2022/08/30 07:44:46;;;;;;;12.65;5.60;;;;;;;25.94;51.46;101235.25;4972500;28;20082;-78
2022/08/30 07:47:13;;;;;;;13.70;5.43;;;;;;;25.84;51.06;101243.09;4975100;28;20416;-79
2022/08/30 07:49:39;;;;;;;7.82;4.93;;;;;;;25.11;52.49;101259.91;4987053;28;20046;-78
2022/08/30 07:52:06;;;;;;;12.82;5.38;;;;;;;23.88;55.38;101249.28;4973467;28;20138;-79
2022/08/30 07:54:33;;;;;;;13.70;5.38;;;;;;;24.81;53.84;101252.03;4980802;28;20122;-78
2022/08/30 07:57:01;;;;;;;10.85;4.95;;;;;;;25.63;51.50;101246.44;4990977;28;20126;-78
2022/08/30 07:59:28;;;;;;;11.60;5.28;;;;;;;24.83;52.67;101254.47;4984377;28;20130;-78
2022/08/30 08:01:54;;;;;;;15.32;5.40;;;;;;;25.93;50.78;101251.56;4991998;28;20133;-78
2022/08/30 08:04:21;;;;;;;8.75;4.97;;;;;;;25.62;50.82;101244.81;4992873;28;20133;-78
2022/08/30 08:06:48;;;;;;;6.65;4.57;;;;;;;24.97;52.39;101255.91;4978625;28;20074;-79
2022/08/30 08:09:15;;;;;;;8.55;5.05;;;;;;;26.10;50.44;101247.00;4992737;28;20113;-78
2022/08/30 08:11:41;;;;;;;10.43;5.03;;;;;;;26.23;49.71;101246.69;4978894;28;20078;-77
2022/08/30 08:14:10;;;;;;;10.23;5.22;;;;;;;25.21;51.01;101254.75;4973473;28;20137;-79
2022/08/30 08:16:37;;;;;;;10.75;5.05;;;;;;;24.36;53.06;101252.66;4984773;28;20078;-78
2022/08/30 08:19:07;;;;;;;9.85;5.15;;;;;;;24.16;53.77;101252.94;5011359;23;20050;-80
2022/08/30 08:21:35;;;;;;;11.65;5.05;;;;;;;24.31;53.72;101259.72;4972195;28;20493;-80
2022/08/30 08:24:05;;;;;;;10.52;5.07;;;;;;;23.91;54.72;101246.97;4969531;29;20078;-82
2022/08/30 08:26:34;;;;;;;8.98;4.85;;;;;;;23.68;54.61;101250.38;4985566;28;20050;-80
2022/08/30 08:29:00;;;;;;;11.13;4.93;;;;;;;24.14;53.93;101252.34;4988924;28;20142;-81
2022/08/30 08:31:28;;;;;;;9.52;5.20;;;;;;;25.45;51.45;101258.19;4988835;28;20081;-81
2022/08/30 08:33:57;;;;;;;10.45;4.70;;;;;;;25.26;51.28;101256.72;4988190;28;20112;-82
2022/08/30 08:36:24;;;;;;;13.32;5.20;;;;;;;25.73;50.31;101252.84;4988288;28;20051;-80
2022/08/30 08:38:51;;;;;;;10.88;4.65;;;;;;;25.33;50.75;101238.66;4988023;28;20047;-80
2022/08/30 08:41:31;;;;;;;12.18;5.65;;;;;;;25.31;50.99;101238.91;4988650;28;20086;-81
2022/08/30 08:43:58;;;;;;;7.35;5.00;;;;;;;25.27;51.13;101247.66;4987324;28;20053;-81
2022/08/30 08:46:31;;;;;;;9.15;5.05;;;;;;;25.13;51.64;101247.09;4987921;28;20051;-80
2022/08/30 08:49:03;;;;;;;11.13;4.38;;;;;;;25.20;51.03;101246.97;4988307;28;20250;-79
2022/08/30 08:54:24;;;;;;;10.43;5.28;;;;;;;25.73;50.09;101242.09;4990928;28;20053;-81
2022/08/30 08:56:51;;;;;;;8.80;4.60;;;;;;;26.30;49.29;101238.47;5003919;28;20106;-82
2022/08/30 08:59:18;;;;;;;9.30;4.68;;;;;;;25.49;49.79;101240.59;4986051;28;20054;-80
2022/08/30 09:01:49;;;;;;;7.57;4.43;;;;;;;25.89;49.83;101231.66;4989547;28;20046;-78
2022/08/30 09:04:20;;;;;;;8.67;4.47;;;;;;;26.60;48.42;101219.31;4985164;28;20051;-82
2022/08/30 09:06:53;;;;;;;6.85;4.65;;;;;;;26.85;48.22;101224.22;4986199;28;20614;-82
2022/08/30 09:09:26;;;;;;;7.93;5.05;;;;;;;26.98;47.84;101229.22;4967594;28;20055;-83
2022/08/30 09:11:53;;;;;;;8.57;4.93;;;;;;;26.69;47.48;101225.91;4984751;28;20046;-80
2022/08/30 09:14:25;;;;;;;8.30;4.30;;;;;;;26.24;48.56;101218.00;4988003;28;20078;-81
2022/08/30 09:16:57;;;;;;;;;;;;;;;25.72;49.56;101223.59;4992619;28;20058;-79
2022/08/30 09:19:42;;;;;;;11.23;4.88;;;;;;;26.74;47.88;101217.91;4993092;28;19961;-81
2022/08/30 09:22:25;;;;;;;8.52;4.72;;;;;;;26.47;47.39;101219.72;4989887;28;20059;-83
2022/08/30 09:24:54;;;;;;;6.15;4.20;;;;;;;27.19;45.87;101217.69;4992148;28;20074;-80
2022/08/30 09:27:29;;;;;;;11.15;4.60;;;;;;;27.24;46.14;101217.72;4991106;28;20078;-82
2022/08/30 09:29:59;;;;;;;9.00;4.55;;;;;;;27.03;46.98;101215.88;4990617;28;20113;-81
2022/08/30 09:32:30;;;;;;;10.55;5.25;;;;;;;26.75;46.75;101209.63;4988556;28;20065;-82
2022/08/30 09:35:00;;;;;;;8.45;4.22;;;;;;;26.67;47.63;101210.03;4992839;28;20094;-81
2022/08/30 09:37:36;;;;;;;9.70;4.20;;;;;;;26.35;45.29;101206.38;4991363;28;20050;-82
2022/08/30 09:40:11;;;;;;;13.55;4.32;;;;;;;26.38;45.29;101204.03;4991372;28;20066;-81
2022/08/30 09:42:39;;;;;;;9.75;4.60;;;;;;;26.71;46.09;101205.81;4991057;28;20038;-79
2022/08/30 09:45:18;;;;;;;8.18;4.32;;;;;;;26.99;44.65;101209.38;4989617;28;20516;-79
2022/08/30 09:47:46;;;;;;;7.63;4.28;;;;;;;26.52;43.78;101212.50;4985742;28;20098;-79
2022/08/30 09:50:15;;;;;;;7.70;4.32;;;;;;;26.20;44.80;101203.44;4988627;28;20106;-78
2022/08/30 09:52:56;;;;;;;8.32;4.60;;;;;;;26.42;45.07;101198.97;4986010;28;20493;-79
2022/08/30 09:55:46;;;;;;;12.23;4.72;;;;;;;26.88;42.81;101204.94;4983118;28;20086;-79
2022/08/30 09:58:28;;;;;;;7.32;4.05;;;;;;;27.20;42.16;101213.13;4979703;28;20074;-78
2022/08/30 10:01:04;;;;;;;7.43;4.40;;;;;;;26.86;42.59;101196.31;4964578;28;20130;-81
2022/08/30 10:03:39;;;;;;;11.13;5.25;;;;;;;26.57;43.59;101196.47;4980680;28;20047;-80
2022/08/30 10:06:12;;;;;;;9.18;4.53;;;;;;;26.42;44.02;101196.28;4984730;28;20085;-79
2022/08/30 10:08:50;;;;;;;7.65;4.70;;;;;;;26.88;42.82;101189.63;4981985;28;20078;-79
2022/08/30 10:11:24;;;;;;;13.35;4.65;;;;;;;26.80;42.91;101190.06;5003747;28;20073;-78
2022/08/30 10:14:18;;;;;;;11.02;4.75;;;;;;;27.42;42.21;101195.88;4989908;28;20158;-78
2022/08/30 10:16:56;;;;;;;8.52;4.72;;;;;;;27.27;41.93;101193.03;4982743;28;20047;-79
2022/08/30 10:19:41;;;;;;;12.75;4.93;;;;;;;26.62;42.64;101193.06;4983496;28;20097;-78
2022/08/30 10:22:15;;;;;;;7.47;4.82;;;;;;;27.01;42.29;101188.44;4986717;28;20089;-78
2022/08/30 10:24:46;;;;;;;13.23;5.15;;;;;;;27.11;41.74;101188.56;4986689;28;20220;-78
2022/08/30 10:27:20;;;;;;;10.13;4.87;;;;;;;26.94;42.51;101203.94;4993903;28;20046;-79
2022/08/30 10:29:51;;;;;;;9.95;4.35;;;;;;;27.21;43.20;101182.50;4995408;28;20278;-79
2022/08/30 10:32:24;;;;;;;6.70;4.70;;;;;;;27.55;41.88;101183.09;4993005;28;20078;-77
2022/08/30 10:34:59;;;;;;;7.47;4.75;;;;;;;27.01;42.49;101172.34;4985981;28;20058;-78
2022/08/30 10:37:29;;;;;;;6.93;4.20;;;;;;;27.43;41.17;101181.38;4982038;28;20082;-79
2022/08/30 10:41:11;;;;;;;5.75;4.20;;;;;;;26.87;42.31;101181.84;4986617;28;20165;-79
2022/08/30 10:42:46;;;;;;;11.95;4.50;;;;;;;27.77;41.60;101174.97;4985629;28;20078;-78
2022/08/30 10:45:15;;;;;;;8.27;4.70;;;;;;;27.52;40.76;101183.59;4981362;28;20055;-79
2022/08/30 10:47:48;;;;;;;7.60;4.43;;;;;;;27.78;41.45;101182.78;4981788;28;20062;-78
2022/08/30 10:50:21;;;;;;;8.48;4.28;;;;;;;27.42;42.01;101182.44;4979373;28;20085;-78
2022/08/30 10:52:54;;;;;;;9.52;4.72;;;;;;;27.25;42.13;101178.25;4979594;28;20093;-77
2022/08/30 10:55:25;;;;;;;6.10;4.20;;;;;;;27.44;42.10;101174.94;4983008;28;20089;-79
2022/08/30 10:57:53;;;;;;;5.35;4.15;;;;;;;27.15;41.60;101165.50;4983766;28;20051;-78
2022/08/30 11:00:24;;;;;;;11.02;4.65;;;;;;;27.23;41.10;101175.00;4987756;28;20221;-80
2022/08/30 11:03:27;;;;;;;8.43;4.80;;;;;;;27.19;42.29;101177.38;4988670;28;20186;-79
2022/08/30 11:06:18;;;;;;;7.13;4.45;;;;;;;27.24;42.53;101174.75;4987564;28;20129;-79
2022/08/30 11:09:06;;;;;;;7.30;4.03;;;;;;;27.43;41.47;101176.00;4986497;28;20065;-80
2022/08/30 11:11:50;;;;;;;10.57;4.72;;;;;;;27.38;42.10;101167.91;4986499;28;20043;-79
2022/08/30 11:14:19;;;;;;;8.05;4.57;;;;;;;27.51;41.64;101171.22;4986805;28;20160;-80
2022/08/30 11:16:55;;;;;;;7.50;4.47;;;;;;;27.61;41.00;101160.59;4986962;28;20078;-80
2022/08/30 11:19:26;;;;;;;9.10;4.93;;;;;;;27.64;42.12;101165.47;4987887;28;20066;-80
2022/08/30 11:22:11;;;;;;;10.32;4.72;;;;;;;27.72;41.95;101162.31;4987271;28;20058;-76
2022/08/30 11:25:05;;;;;;;8.45;4.38;;;;;;;27.48;42.35;101160.97;4985664;28;20197;-78
2022/08/30 11:27:44;;;;;;;7.18;4.28;;;;;;;27.67;41.85;101156.88;4976894;28;20484;-77
2022/08/30 11:30:53;;;;;;;9.90;4.63;;;;;;;27.62;42.53;101163.03;4982177;28;20117;-77
2022/08/30 11:33:43;;;;;;;6.70;4.30;;;;;;;27.42;44.51;101162.81;4958497;28;20133;-79
2022/08/30 11:36:14;;;;;;;9.88;4.38;;;;;;;27.80;44.72;101151.06;4979529;28;20455;-77
2022/08/30 11:39:05;;;;;;;10.15;4.50;;;;;;;27.55;45.09;101169.66;4971817;28;20495;-78